Time;durP1;ratioP1;P1;durP2;ratioP2;P2;SDS_P1;SDS_P2;PMS_P1;PMS_P2;Temp;Humidity;BMP_temperature;BMP_pressure;BME280_temperature;BME280_humidity;BME280_pressure;Samples;Min_cycle;Max_cycle;Signal;HPM_P1;HPM_P2
2023/06/09 00:01:58;;;;;;;7.93;5.28;;;;;;;17.11;48.54;100362.38;20720183;28;20905;-78
2023/06/09 00:12:01;;;;;;;7.45;6.75;;;;;;;17.07;48.62;100367.22;20730027;28;20197;-80
2023/06/09 00:22:05;;;;;;;11.23;8.32;;;;;;;16.91;49.12;100352.31;20733973;28;20212;-83
2023/06/09 00:32:08;;;;;;;10.10;7.20;;;;;;;16.63;50.06;100356.38;20721808;28;20214;-82
2023/06/09 00:42:11;;;;;;;7.70;7.00;;;;;;;16.95;49.35;100370.31;20730390;28;20279;-81
2023/06/09 00:52:14;;;;;;;9.85;7.90;;;;;;;16.51;50.99;100379.38;20704484;28;20247;-82
2023/06/09 01:02:17;;;;;;;10.23;8.18;;;;;;;16.42;51.12;100373.13;20706845;28;20241;-81
2023/06/09 01:12:32;;;;;;;9.15;8.05;;;;;;;15.90;53.86;100371.75;20701340;28;20328;-79
2023/06/09 01:22:47;;;;;;;9.68;8.68;;;;;;;15.95;53.31;100372.66;20735795;28;20711;-83
2023/06/09 01:32:50;;;;;;;10.30;8.52;;;;;;;15.99;52.73;100368.69;20727081;28;20228;-84
2023/06/09 01:42:53;;;;;;;10.20;9.20;;;;;;;16.03;52.33;100363.91;20723115;28;20231;-84
2023/06/09 01:53:09;;;;;;;11.07;9.15;;;;;;;15.91;53.09;100367.72;20720534;28;20483;-86
2023/06/09 02:03:13;;;;;;;11.90;9.18;;;;;;;15.50;55.01;100375.03;20739449;28;20266;-83
2023/06/09 02:13:17;;;;;;;11.38;8.95;;;;;;;15.13;55.89;100383.16;20688391;28;20193;-82
2023/06/09 02:23:21;;;;;;;13.05;9.85;;;;;;;15.17;55.68;100377.53;20730546;28;20283;-83
2023/06/09 02:33:24;;;;;;;10.55;9.40;;;;;;;15.35;54.92;100366.56;20729308;28;20291;-82
2023/06/09 02:43:26;;;;;;;9.57;8.57;;;;;;;15.31;55.42;100360.81;20757455;28;20221;-81
2023/06/09 02:53:29;;;;;;;12.27;9.20;;;;;;;15.31;54.88;100371.34;20754109;28;20190;-82
2023/06/09 03:03:38;;;;;;;12.50;9.60;;;;;;;14.91;56.43;100368.81;20733307;28;20495;-80
2023/06/09 03:13:40;;;;;;;11.15;8.68;;;;;;;14.73;57.65;100365.59;20722238;28;20507;-80
2023/06/09 03:23:43;;;;;;;11.38;10.15;;;;;;;14.79;57.46;100379.13;20744513;28;20216;-82
2023/06/09 03:33:46;;;;;;;11.32;9.73;;;;;;;14.85;56.99;100388.19;20675966;28;20532;-81
2023/06/09 03:43:48;;;;;;;14.27;9.60;;;;;;;14.46;58.46;100396.56;20712445;28;20279;-82
2023/06/09 03:53:51;;;;;;;11.93;10.73;;;;;;;14.50;58.44;100388.97;20709339;28;20193;-82
2023/06/09 04:03:53;;;;;;;13.18;11.73;;;;;;;14.69;58.55;100390.22;20711266;28;20237;-80
2023/06/09 04:13:56;;;;;;;14.02;11.18;;;;;;;14.90;58.23;100387.88;20692323;28;20197;-83
2023/06/09 04:23:58;;;;;;;13.02;10.68;;;;;;;14.87;58.31;100385.81;20723933;28;20220;-76
2023/06/09 04:34:10;;;;;;;12.63;10.82;;;;;;;15.02;58.04;100387.75;20752646;28;20367;-81
2023/06/09 04:44:15;;;;;;;12.93;11.63;;;;;;;15.03;59.15;100380.88;20727895;28;20275;-82
2023/06/09 04:54:22;;;;;;;14.38;12.10;;;;;;;15.39;57.38;100376.03;20700729;28;20189;-80
2023/06/09 05:04:26;;;;;;;13.82;11.95;;;;;;;15.18;58.77;100391.38;20753031;28;20271;-84
2023/06/09 05:14:30;;;;;;;14.45;13.02;;;;;;;15.34;57.96;100393.38;20711062;28;20189;-76
2023/06/09 05:24:37;;;;;;;14.38;12.75;;;;;;;15.86;56.68;100396.47;20736989;28;20216;-76
2023/06/09 05:34:40;;;;;;;15.35;12.85;;;;;;;16.05;56.46;100400.53;20753206;28;20723;-75
2023/06/09 05:44:42;;;;;;;13.15;11.82;;;;;;;15.93;55.81;100407.19;20752209;28;20216;-82
2023/06/09 05:54:47;;;;;;;18.23;11.90;;;;;;;16.26;54.21;100418.84;20741366;28;20221;-82
2023/06/09 06:04:50;;;;;;;13.52;11.55;;;;;;;16.51;53.01;100419.25;20732132;28;20221;-81
2023/06/09 06:14:52;;;;;;;16.48;12.23;;;;;;;17.15;51.21;100408.06;20742629;28;20216;-81
2023/06/09 06:24:54;;;;;;;13.55;11.93;;;;;;;16.94;52.52;100408.59;20745246;28;20220;-81
2023/06/09 06:34:56;;;;;;;10.65;9.75;;;;;;;17.13;51.53;100411.31;20730071;28;20523;-82
2023/06/09 06:45:01;;;;;;;13.57;10.82;;;;;;;16.85;53.01;100410.88;20732875;28;20283;-80
2023/06/09 06:55:06;;;;;;;11.88;10.68;;;;;;;17.53;51.45;100412.69;20743898;28;20213;-80
2023/06/09 07:05:09;;;;;;;11.80;9.30;;;;;;;17.29;51.73;100409.13;20740383;28;20274;-81
2023/06/09 07:15:11;;;;;;;9.63;8.57;;;;;;;18.67;47.18;100398.41;20735674;28;20193;-80
2023/06/09 07:25:13;;;;;;;10.18;8.77;;;;;;;18.73;46.03;100411.16;20735461;28;20209;-81
2023/06/09 07:35:19;;;;;;;9.57;7.43;;;;;;;19.10;45.96;100404.44;20701379;28;1051265;-81
2023/06/09 07:45:22;;;;;;;8.68;7.28;;;;;;;19.44;44.50;100407.91;20737911;28;20526;-84
2023/06/09 07:55:25;;;;;;;8.90;7.57;;;;;;;20.21;42.33;100400.03;20728389;28;20304;-81
2023/06/09 08:05:28;;;;;;;10.43;7.63;;;;;;;20.38;43.17;100393.50;20737249;28;20213;-81
2023/06/09 08:15:30;;;;;;;9.30;6.95;;;;;;;20.39;41.77;100395.16;20723062;28;20212;-83
2023/06/09 08:25:34;;;;;;;8.73;7.45;;;;;;;20.79;42.42;100388.19;20712633;28;20234;-83
2023/06/09 08:35:37;;;;;;;8.10;5.65;;;;;;;21.17;41.92;100381.56;20737539;28;20221;-84
2023/06/09 08:45:40;;;;;;;10.25;6.05;;;;;;;21.42;39.80;100366.31;20738663;28;20283;-83
2023/06/09 08:55:44;;;;;;;8.80;6.28;;;;;;;22.01;40.08;100370.16;20764734;28;20190;-82
2023/06/09 09:05:47;;;;;;;7.05;6.10;;;;;;;22.13;39.57;100361.06;20718878;28;20279;-81
2023/06/09 09:15:50;;;;;;;7.85;5.40;;;;;;;22.11;40.01;100369.28;20733232;28;20675;-81
2023/06/09 09:25:53;;;;;;;8.07;5.32;;;;;;;22.52;38.95;100360.75;20712742;28;20213;-82
2023/06/09 09:35:58;;;;;;;5.55;5.05;;;;;;;22.59;37.56;100348.34;20720318;28;20518;-82
2023/06/09 09:46:07;;;;;;;6.85;5.07;;;;;;;23.21;37.01;100341.56;20713009;28;20236;-83
2023/06/09 09:56:10;;;;;;;7.22;5.18;;;;;;;23.60;35.94;100330.34;20725537;28;20594;-81
2023/06/09 10:06:16;;;;;;;5.45;4.55;;;;;;;23.88;33.67;100328.34;20712337;28;20213;-81
2023/06/09 10:16:21;;;;;;;5.30;4.88;;;;;;;23.63;33.28;100326.59;20705087;28;20190;-82
2023/06/09 10:26:23;;;;;;;5.40;4.30;;;;;;;24.57;33.36;100303.75;20731841;28;20573;-82
2023/06/09 10:36:35;;;;;;;4.97;4.40;;;;;;;24.24;32.19;100315.00;20726098;28;20568;-82
2023/06/09 10:46:45;;;;;;;4.97;4.53;;;;;;;24.08;33.33;100311.97;20716004;28;20221;-83
2023/06/09 10:56:54;;;;;;;5.63;4.60;;;;;;;24.29;32.33;100317.41;20729467;28;20235;-80
2023/06/09 11:07:12;;;;;;;4.35;4.05;;;;;;;24.95;31.19;100296.44;20753497;28;20283;-81
2023/06/09 11:17:19;;;;;;;7.10;4.88;;;;;;;25.14;31.03;100297.72;20762130;28;20251;-83
2023/06/09 11:27:22;;;;;;;4.68;4.38;;;;;;;25.31;31.53;100278.38;20776809;28;20213;-82
2023/06/09 11:37:25;;;;;;;4.60;4.20;;;;;;;25.49;30.65;100284.59;20745766;28;20530;-82
2023/06/09 11:47:29;;;;;;;4.78;4.32;;;;;;;25.83;31.46;100292.09;20723687;28;20682;-82
2023/06/09 11:57:35;;;;;;;7.88;4.55;;;;;;;25.36;31.28;100286.53;20738279;28;20448;-80
2023/06/09 12:07:38;;;;;;;4.85;4.15;;;;;;;25.93;28.38;100274.47;20722921;28;20217;-82
2023/06/09 12:17:41;;;;;;;5.38;3.78;;;;;;;26.05;30.74;100264.28;20716017;28;20248;-83
2023/06/09 12:27:43;;;;;;;6.10;4.47;;;;;;;26.09;27.89;100265.00;20726308;28;20565;-84
2023/06/09 12:37:46;;;;;;;5.85;4.25;;;;;;;25.43;29.79;100251.69;20732727;28;20229;-80
2023/06/09 12:47:48;;;;;;;5.15;4.53;;;;;;;24.85;30.40;100256.22;20736745;28;20267;-82
2023/06/09 12:57:51;;;;;;;6.78;4.32;;;;;;;24.89;29.43;100236.72;20710983;28;20197;-83
2023/06/09 13:07:53;;;;;;;7.47;4.88;;;;;;;24.54;28.96;100241.13;20726054;28;20260;-82
2023/06/09 13:17:55;;;;;;;5.60;4.57;;;;;;;25.97;28.38;100239.69;20723480;28;20232;-82
2023/06/09 13:27:58;;;;;;;8.00;4.40;;;;;;;24.77;28.08;100234.50;20708629;28;20233;-82
2023/06/09 13:38:01;;;;;;;6.28;5.10;;;;;;;24.72;28.46;100236.66;20731076;28;20692;-82
2023/06/09 13:48:03;;;;;;;8.13;5.03;;;;;;;25.54;28.58;100232.00;20702530;28;20225;-82
2023/06/09 13:58:06;;;;;;;7.40;5.00;;;;;;;25.96;27.34;100214.91;20724253;28;20255;-82
2023/06/09 14:08:08;;;;;;;5.90;4.57;;;;;;;25.81;26.23;100214.47;20719550;28;20272;-84
2023/06/09 14:18:13;;;;;;;7.57;4.53;;;;;;;26.25;27.43;100209.19;20731106;28;20255;-83
2023/06/09 14:28:16;;;;;;;6.90;4.50;;;;;;;26.77;26.91;100197.47;20734038;28;20221;-82
2023/06/09 14:38:18;;;;;;;6.20;4.88;;;;;;;25.93;26.98;100192.69;20744598;28;20233;-83
2023/06/09 14:48:20;;;;;;;4.50;4.10;;;;;;;26.00;26.26;100192.50;20714469;28;20673;-82
2023/06/09 14:58:22;;;;;;;6.47;4.60;;;;;;;26.09;27.22;100187.69;20716859;28;20538;-82
2023/06/09 15:08:25;;;;;;;4.80;4.30;;;;;;;24.84;28.04;100200.56;20708139;28;20245;-83
2023/06/09 15:18:27;;;;;;;5.50;4.65;;;;;;;25.57;27.13;100192.72;20712604;28;20684;-83
2023/06/09 15:28:30;;;;;;;4.97;4.32;;;;;;;25.31;25.96;100204.06;20729091;28;20240;-76
2023/06/09 15:38:32;;;;;;;13.73;6.38;;;;;;;24.83;26.16;100198.91;20726602;28;20217;-79
2023/06/09 15:48:37;;;;;;;5.28;4.25;;;;;;;24.67;26.42;100198.81;20697030;28;20303;-82
2023/06/09 15:58:41;;;;;;;7.75;4.93;;;;;;;25.76;26.08;100183.22;20710403;28;20255;-79
2023/06/09 16:08:46;;;;;;;5.63;4.75;;;;;;;25.59;26.47;100167.91;20728237;28;20217;-76
2023/06/09 16:18:52;;;;;;;7.97;5.05;;;;;;;25.03;26.40;100165.03;20709061;28;20251;-79
2023/06/09 16:28:54;;;;;;;5.18;4.38;;;;;;;25.24;26.98;100162.94;20717065;28;20221;-76
2023/06/09 16:38:57;;;;;;;6.40;4.00;;;;;;;25.22;26.54;100165.47;20711611;28;20259;-75
2023/06/09 16:48:59;;;;;;;4.97;4.20;;;;;;;24.76;27.72;100161.50;20716709;28;20691;-78
2023/06/09 16:59:01;;;;;;;7.30;4.22;;;;;;;25.19;27.38;100167.16;20682598;28;20190;-78
2023/06/09 17:09:04;;;;;;;4.40;4.00;;;;;;;25.03;28.54;100175.78;20667847;28;20271;-78
2023/06/09 17:19:06;;;;;;;6.97;5.00;;;;;;;24.45;29.90;100183.19;20701963;28;20247;-78
2023/06/09 17:29:08;;;;;;;7.07;4.85;;;;;;;23.91;30.23;100184.13;20677798;28;20295;-79
2023/06/09 17:39:11;;;;;;;7.25;5.28;;;;;;;24.77;29.42;100192.03;20700421;28;20292;-79
2023/06/09 17:49:15;;;;;;;7.38;5.00;;;;;;;24.15;29.32;100196.47;20699611;28;20245;-80
2023/06/09 17:59:18;;;;;;;4.88;4.40;;;;;;;24.50;28.97;100208.63;20701718;28;20601;-75
2023/06/09 18:09:20;;;;;;;5.82;4.68;;;;;;;23.96;29.92;100217.44;20701421;28;20266;-80
2023/06/09 18:19:23;;;;;;;5.25;4.72;;;;;;;23.83;30.81;100213.53;20706296;28;20287;-80
2023/06/09 18:29:25;;;;;;;5.18;4.68;;;;;;;23.96;29.83;100214.53;20715162;28;20275;-80
2023/06/09 18:39:28;;;;;;;6.80;4.22;;;;;;;23.30;31.35;100241.06;20709997;28;20722;-81
2023/06/09 18:49:30;;;;;;;6.68;4.80;;;;;;;23.56;32.84;100239.47;20730110;28;20814;-76
2023/06/09 18:59:33;;;;;;;9.43;5.07;;;;;;;23.52;32.88;100251.03;20725210;28;20232;-80
2023/06/09 19:09:35;;;;;;;6.63;5.40;;;;;;;22.51;34.10;100266.22;20706318;28;20257;-78
2023/06/09 19:19:37;;;;;;;7.32;5.35;;;;;;;22.60;33.41;100278.03;20712416;28;20237;-77
2023/06/09 19:29:40;;;;;;;6.47;5.00;;;;;;;21.72;34.34;100291.91;20707235;28;20221;-80
2023/06/09 19:39:42;;;;;;;6.90;5.35;;;;;;;22.09;33.63;100297.00;20713034;28;20256;-79
2023/06/09 19:49:45;;;;;;;11.52;5.32;;;;;;;21.76;33.90;100317.75;20697038;28;20314;-80
2023/06/09 19:59:49;;;;;;;5.05;4.63;;;;;;;22.03;34.51;100326.59;20713979;28;20194;-82
2023/06/09 20:09:52;;;;;;;5.95;5.03;;;;;;;21.75;36.65;100341.97;20697356;28;20229;-79
2023/06/09 20:19:56;;;;;;;7.95;5.63;;;;;;;21.61;35.77;100347.78;20707840;28;20283;-80
2023/06/09 20:29:58;;;;;;;7.18;5.30;;;;;;;21.32;35.73;100359.38;20699664;28;20244;-79
2023/06/09 20:40:02;;;;;;;5.53;4.93;;;;;;;21.13;35.83;100365.59;20683945;28;20226;-79
2023/06/09 20:50:05;;;;;;;6.53;5.50;;;;;;;21.01;36.67;100374.63;20693753;28;20507;-82
2023/06/09 21:00:09;;;;;;;6.93;5.32;;;;;;;20.98;36.91;100384.09;20689587;28;20228;-81
2023/06/09 21:10:11;;;;;;;8.68;5.38;;;;;;;20.84;37.24;100374.25;20696980;28;21766;-81
2023/06/09 21:20:20;;;;;;;5.57;5.07;;;;;;;20.32;37.77;100383.66;20690385;28;20194;-81
2023/06/09 21:30:22;;;;;;;8.30;4.80;;;;;;;20.43;36.72;100390.25;20684658;28;20317;-77
2023/06/09 21:40:25;;;;;;;8.23;5.38;;;;;;;20.06;37.45;100388.53;20666517;28;20328;-79
2023/06/09 21:50:27;;;;;;;7.40;5.05;;;;;;;19.92;37.54;100391.38;20695310;28;20291;-81
2023/06/09 22:00:30;;;;;;;6.57;5.13;;;;;;;20.05;36.84;100398.38;20690760;28;20232;-78
2023/06/09 22:10:35;;;;;;;5.53;4.70;;;;;;;19.79;37.68;100407.28;20699596;28;20237;-79
2023/06/09 22:20:37;;;;;;;4.63;4.22;;;;;;;19.63;38.46;100412.53;20690429;28;20201;-80
2023/06/09 22:30:39;;;;;;;5.25;4.68;;;;;;;19.56;37.77;100403.91;20693052;28;20699;-81
2023/06/09 22:40:42;;;;;;;6.07;4.60;;;;;;;19.33;39.28;100407.88;20691798;28;20256;-80
2023/06/09 22:50:44;;;;;;;7.35;5.63;;;;;;;19.56;38.85;100395.31;20695340;28;20272;-77
2023/06/09 23:00:47;;;;;;;5.85;5.05;;;;;;;19.06;40.09;100409.31;20705762;28;20489;-79
2023/06/09 23:10:49;;;;;;;5.45;4.95;;;;;;;19.01;40.28;100416.25;20704645;28;20241;-79
2023/06/09 23:20:54;;;;;;;5.68;5.15;;;;;;;18.74;41.07;100404.22;20703816;28;20579;-80
2023/06/09 23:30:56;;;;;;;6.85;5.53;;;;;;;18.98;40.57;100407.63;20714406;28;20288;-77
2023/06/09 23:40:59;;;;;;;7.55;5.68;;;;;;;18.61;41.57;100405.75;20712824;28;20198;-80
2023/06/09 23:51:01;;;;;;;6.32;5.72;;;;;;;18.64;42.42;100399.22;20703200;28;20653;-79
